createdAt,value
2022-08-07T00:00:33.095Z,61.32
2022-08-07T00:01:44.394Z,61.19
2022-08-07T00:02:36.648Z,61.38
2022-08-07T00:03:36.616Z,60.90
2022-08-07T00:04:33.105Z,61.29
2022-08-07T00:05:33.034Z,61.00
2022-08-07T00:06:33.795Z,61.00
2022-08-07T00:07:40.788Z,61.32
2022-08-07T00:08:33.647Z,61.19
2022-08-07T00:09:35.586Z,61.00
2022-08-07T00:10:32.907Z,60.90
2022-08-07T00:11:33.165Z,61.00
2022-08-07T00:12:32.873Z,60.90
2022-08-07T00:13:32.860Z,61.10
2022-08-07T00:14:32.866Z,61.22
2022-08-07T00:15:38.411Z,61.41
2022-08-07T00:16:32.798Z,60.74
2022-08-07T00:17:35.313Z,60.74
2022-08-07T00:18:32.856Z,60.74
2022-08-07T00:20:00.644Z,60.61
2022-08-07T00:20:34.494Z,60.71
2022-08-07T00:21:56.148Z,60.42
2022-08-07T00:22:34.921Z,60.52
2022-08-07T00:23:32.684Z,60.90
2022-08-07T00:24:32.686Z,60.80
2022-08-07T00:25:37.590Z,60.93
2022-08-07T00:26:49.504Z,60.64
2022-08-07T00:27:35.803Z,60.74
2022-08-07T00:28:33.319Z,60.80
2022-08-07T00:29:32.575Z,60.93
2022-08-07T00:30:32.579Z,60.90
2022-08-07T00:31:37.466Z,60.52
2022-08-07T00:32:32.529Z,60.71
2022-08-07T00:33:32.949Z,60.42
2022-08-07T00:34:32.497Z,60.61
2022-08-07T00:35:32.495Z,60.90
2022-08-07T00:36:32.502Z,60.71
2022-08-07T00:37:48.106Z,60.52
2022-08-07T00:38:33.265Z,60.80
2022-08-07T00:39:32.484Z,60.80
2022-08-07T00:40:40.079Z,60.90
2022-08-07T00:41:32.358Z,60.80
2022-08-07T00:42:32.351Z,61.10
2022-08-07T00:44:01.246Z,61.48
2022-08-07T00:44:33.548Z,61.58
2022-08-07T00:45:32.287Z,61.48
2022-08-07T00:46:33.941Z,61.38
2022-08-07T00:48:07.570Z,61.48
2022-08-07T00:48:32.675Z,61.87
2022-08-07T00:50:19.337Z,61.19
2022-08-07T00:50:46.248Z,61.38
2022-08-07T00:51:58.347Z,61.96
2022-08-07T00:52:33.293Z,61.96
2022-08-07T00:53:38.415Z,62.06
2022-08-07T00:54:32.129Z,61.68
2022-08-07T00:56:03.180Z,61.58
2022-08-07T00:56:34.025Z,61.38
2022-08-07T00:57:34.011Z,61.77
2022-08-07T00:58:32.056Z,61.68
2022-08-07T00:59:35.048Z,61.87
2022-08-07T01:00:32.051Z,62.35
2022-08-07T01:01:44.073Z,62.35
2022-08-07T01:02:31.987Z,62.35
2022-08-07T01:03:54.703Z,62.15
2022-08-07T01:04:32.809Z,62.25
2022-08-07T01:05:32.660Z,62.35
2022-08-07T01:06:31.950Z,62.54
2022-08-07T01:07:32.011Z,62.35
2022-08-07T01:08:31.963Z,62.63
2022-08-07T01:10:05.367Z,62.32
2022-08-07T01:10:31.837Z,62.93
2022-08-07T01:12:27.623Z,63.02
2022-08-07T01:12:31.831Z,62.99
2022-08-07T01:13:35.217Z,62.80
2022-08-07T01:14:31.768Z,63.02
2022-08-07T01:15:36.128Z,62.83
2022-08-07T01:16:31.780Z,63.28
2022-08-07T01:17:31.718Z,63.09
2022-08-07T01:18:31.699Z,62.99
2022-08-07T01:19:32.586Z,63.21
2022-08-07T01:20:31.692Z,63.18
2022-08-07T01:21:31.648Z,63.67
2022-08-07T01:22:31.642Z,63.67
2022-08-07T01:23:36.779Z,63.89
2022-08-07T01:24:31.604Z,63.89
2022-08-07T01:25:54.930Z,63.89
2022-08-07T01:26:31.560Z,64.08
2022-08-07T01:27:32.253Z,63.79
2022-08-07T01:28:31.548Z,63.41
2022-08-07T01:29:33.971Z,63.60
2022-08-07T01:30:32.168Z,63.41
2022-08-07T01:31:42.349Z,63.31
2022-08-07T01:32:31.454Z,63.50
2022-08-07T01:33:53.800Z,63.21
2022-08-07T01:34:32.182Z,63.31
2022-08-07T01:35:52.730Z,63.31
2022-08-07T01:36:33.745Z,63.21
2022-08-07T01:37:31.375Z,63.31
2022-08-07T01:38:31.353Z,62.63
2022-08-07T01:39:39.591Z,63.21
2022-08-07T01:40:31.327Z,63.31
2022-08-07T01:41:31.333Z,63.21
2022-08-07T01:42:39.639Z,63.12
2022-08-07T01:43:34.595Z,63.50
2022-08-07T01:44:31.247Z,63.31
2022-08-07T01:45:36.446Z,63.21
2022-08-07T01:46:31.329Z,63.12
2022-08-07T01:48:20.416Z,63.31
2022-08-07T01:48:31.238Z,63.12
2022-08-07T01:49:31.889Z,63.31
2022-08-07T01:50:31.134Z,63.12
2022-08-07T01:52:01.635Z,62.83
2022-08-07T01:52:31.099Z,63.21
2022-08-07T01:54:12.008Z,63.12
2022-08-07T01:54:33.111Z,63.02
2022-08-07T01:55:33.504Z,63.21
2022-08-07T01:56:31.023Z,63.21
2022-08-07T01:58:01.023Z,63.31
2022-08-07T01:58:33.133Z,63.41
2022-08-07T01:59:31.717Z,63.31
2022-08-07T02:00:30.955Z,63.79
2022-08-07T02:02:00.089Z,63.85
2022-08-07T02:03:12.247Z,63.38
2022-08-07T02:03:42.722Z,62.99
2022-08-07T02:04:30.951Z,63.12
2022-08-07T02:05:48.307Z,63.28
2022-08-07T02:06:32.522Z,63.18
2022-08-07T02:07:44.881Z,63.28
2022-08-07T02:08:30.806Z,63.09
2022-08-07T02:09:52.062Z,63.76
2022-08-07T02:10:30.815Z,63.85
2022-08-07T02:12:04.138Z,63.67
2022-08-07T02:12:30.943Z,63.85
2022-08-07T02:13:56.415Z,63.85
2022-08-07T02:14:40.215Z,63.38
2022-08-07T02:15:30.716Z,63.47
2022-08-07T02:16:33.280Z,63.28
2022-08-07T02:17:34.045Z,63.57
2022-08-07T02:18:30.654Z,63.09
2022-08-07T02:20:05.206Z,63.38
2022-08-07T02:20:30.606Z,63.18
2022-08-07T02:21:55.329Z,63.09
2022-08-07T02:22:30.579Z,63.09
2022-08-07T02:23:30.570Z,63.67
2022-08-07T02:24:30.544Z,63.85
2022-08-07T02:26:10.734Z,63.76
2022-08-07T02:26:34.655Z,63.67
2022-08-07T02:27:30.525Z,64.05
2022-08-07T02:28:30.457Z,63.57
2022-08-07T02:29:30.504Z,63.85
2022-08-07T02:30:30.440Z,63.38
2022-08-07T02:31:30.429Z,63.67
2022-08-07T02:32:33.210Z,63.67
2022-08-07T02:33:42.094Z,63.76
2022-08-07T02:34:30.350Z,63.57
2022-08-07T02:36:28.479Z,63.57
2022-08-07T02:36:32.535Z,63.95
2022-08-07T02:37:34.149Z,64.05
2022-08-07T02:38:31.915Z,63.76
2022-08-07T02:39:43.004Z,64.05
2022-08-07T02:40:34.921Z,63.95
2022-08-07T02:41:37.187Z,63.85
2022-08-07T02:42:30.200Z,63.38
2022-08-07T02:43:30.202Z,63.76
2022-08-07T02:44:34.786Z,63.95
2022-08-07T02:45:58.416Z,64.15
2022-08-07T02:46:30.124Z,64.43
2022-08-07T02:47:44.929Z,64.15
2022-08-07T02:48:30.127Z,64.34
2022-08-07T02:49:57.643Z,64.63
2022-08-07T02:50:30.904Z,64.15
2022-08-07T02:51:42.389Z,64.34
2022-08-07T02:52:31.157Z,64.25
2022-08-07T02:53:30.014Z,63.67
2022-08-07T02:54:29.979Z,63.85
2022-08-07T02:56:02.006Z,64.53
2022-08-07T02:56:29.975Z,64.05
2022-08-07T02:57:30.950Z,63.67
2022-08-07T02:58:29.910Z,63.85
2022-08-07T02:59:29.903Z,63.85
2022-08-07T03:00:30.149Z,63.85
2022-08-07T03:01:35.823Z,64.34
2022-08-07T03:02:29.832Z,64.53
2022-08-07T03:03:49.523Z,63.85
2022-08-07T03:04:29.831Z,64.25
2022-08-07T03:05:35.851Z,64.34
2022-08-07T03:06:33.322Z,64.43
2022-08-07T03:08:04.601Z,64.43
2022-08-07T03:08:29.742Z,63.95
2022-08-07T03:09:42.198Z,64.25
2022-08-07T03:10:29.691Z,63.95
2022-08-07T03:11:32.710Z,64.43
2022-08-07T03:12:30.984Z,64.63
2022-08-07T03:13:29.637Z,64.63
2022-08-07T03:14:29.620Z,65.01
2022-08-07T03:15:47.737Z,64.82
2022-08-07T03:16:30.419Z,65.01
2022-08-07T03:17:29.916Z,65.01
2022-08-07T03:18:34.184Z,65.01
2022-08-07T03:19:36.964Z,65.05
2022-08-07T03:20:29.535Z,65.30
2022-08-07T03:21:33.175Z,64.95
2022-08-07T03:22:30.444Z,65.14
2022-08-07T03:23:33.360Z,65.53
2022-08-07T03:24:29.462Z,65.43
2022-08-07T03:25:32.454Z,65.43
2022-08-07T03:26:30.215Z,64.86
2022-08-07T03:27:30.815Z,65.63
2022-08-07T03:28:38.443Z,65.24
2022-08-07T03:29:29.381Z,65.43
2022-08-07T03:30:29.344Z,65.33
2022-08-07T03:31:42.867Z,65.43
2022-08-07T03:32:29.320Z,65.43
2022-08-07T03:33:32.299Z,65.24
2022-08-07T03:34:29.274Z,65.43
2022-08-07T03:35:43.796Z,65.37
2022-08-07T03:36:29.237Z,65.37
2022-08-07T03:37:29.411Z,65.56
2022-08-07T03:38:29.869Z,65.17
2022-08-07T03:39:59.740Z,65.27
2022-08-07T03:40:36.225Z,65.17
2022-08-07T03:41:42.459Z,64.98
2022-08-07T03:42:29.123Z,64.98
2022-08-07T03:43:32.302Z,65.47
2022-08-07T03:44:34.393Z,64.59
2022-08-07T03:45:30.322Z,64.72
2022-08-07T03:46:29.086Z,64.69
2022-08-07T03:47:48.065Z,64.89
2022-08-07T03:48:29.744Z,64.69
2022-08-07T03:49:29.017Z,64.63
2022-08-07T03:50:29.095Z,64.69
2022-08-07T03:51:30.928Z,64.69
2022-08-07T03:52:28.949Z,64.59
2022-08-07T03:53:50.238Z,64.50
2022-08-07T03:54:36.002Z,64.53
2022-08-07T03:55:57.449Z,64.72
2022-08-07T03:56:32.528Z,65.01
2022-08-07T03:58:35.204Z,65.30
2022-08-07T03:59:03.786Z,65.11
2022-08-07T03:59:28.854Z,65.20
2022-08-07T04:00:30.508Z,65.11
2022-08-07T04:01:28.849Z,64.63
2022-08-07T04:02:28.796Z,64.53
2022-08-07T04:03:28.782Z,64.82
2022-08-07T04:04:28.756Z,64.72
2022-08-07T04:05:40.188Z,64.72
2022-08-07T04:06:37.761Z,64.82
2022-08-07T04:07:36.135Z,64.72
2022-08-07T04:08:28.677Z,64.72
2022-08-07T04:09:38.047Z,64.92
2022-08-07T04:10:29.481Z,64.72
2022-08-07T04:12:15.354Z,64.92
2022-08-07T04:12:29.085Z,64.72
2022-08-07T04:13:28.585Z,64.76
2022-08-07T04:14:37.599Z,64.92
2022-08-07T04:15:28.564Z,65.43
2022-08-07T04:16:31.358Z,65.24
2022-08-07T04:18:30.876Z,65.24
2022-08-07T04:18:58.299Z,65.63
2022-08-07T04:19:51.165Z,65.53
2022-08-07T04:20:28.481Z,65.82
2022-08-07T04:21:31.814Z,65.53
2022-08-07T04:22:29.191Z,65.82
2022-08-07T04:23:43.871Z,65.34
2022-08-07T04:24:33.628Z,65.34
2022-08-07T04:25:29.597Z,65.43
2022-08-07T04:26:28.810Z,65.53
2022-08-07T04:27:28.463Z,65.34
2022-08-07T04:28:28.349Z,65.43
2022-08-07T04:29:30.466Z,65.66
2022-08-07T04:30:39.360Z,65.43
2022-08-07T04:31:39.187Z,65.47
2022-08-07T04:32:34.327Z,65.66
2022-08-07T04:33:28.262Z,65.17
2022-08-07T04:34:33.267Z,65.27
2022-08-07T04:35:35.086Z,65.27
2022-08-07T04:36:28.209Z,65.47
2022-08-07T04:37:28.806Z,65.69
2022-08-07T04:38:28.796Z,65.27
2022-08-07T04:39:28.196Z,65.69
2022-08-07T04:40:30.050Z,65.59
2022-08-07T04:41:28.229Z,65.69
2022-08-07T04:42:28.707Z,65.59
2022-08-07T04:44:09.771Z,65.20
2022-08-07T04:44:28.055Z,65.01
2022-08-07T04:45:57.831Z,65.34
2022-08-07T04:46:29.422Z,65.20
2022-08-07T04:48:01.058Z,65.43
2022-08-07T04:48:27.989Z,65.63
2022-08-07T04:49:27.988Z,64.76
2022-08-07T04:50:27.993Z,64.95
2022-08-07T04:51:27.950Z,64.79
2022-08-07T04:52:27.925Z,64.89
2022-08-07T04:54:01.807Z,64.98
2022-08-07T04:54:30.082Z,64.69
2022-08-07T04:58:09.386Z,64.62
2022-08-07T04:58:12.544Z,64.04
2022-08-07T04:58:16.822Z,64.50
2022-08-07T04:58:49.661Z,64.04
2022-08-07T05:00:11.564Z,64.72
2022-08-07T05:00:30.576Z,64.47
2022-08-07T05:01:30.743Z,64.47
2022-08-07T05:02:27.769Z,64.27
2022-08-07T05:04:00.957Z,63.89
2022-08-07T05:04:27.761Z,63.72
2022-08-07T05:05:54.144Z,63.53
2022-08-07T05:06:28.078Z,63.62
2022-08-07T05:07:36.634Z,63.72
2022-08-07T05:08:59.023Z,63.62
2022-08-07T05:09:43.014Z,63.17
2022-08-07T05:10:27.649Z,63.17
2022-08-07T05:11:27.626Z,63.07
2022-08-07T05:12:30.599Z,63.07
2022-08-07T05:14:52.969Z,62.82
2022-08-07T05:14:53.404Z,63.01
2022-08-07T05:15:27.562Z,62.33
2022-08-07T05:16:27.556Z,62.43
2022-08-07T05:18:00.829Z,62.33
2022-08-07T05:18:27.561Z,62.36
2022-08-07T05:19:32.826Z,62.26
2022-08-07T05:20:27.501Z,62.46
2022-08-07T05:22:00.365Z,61.91
2022-08-07T05:22:27.890Z,61.81
2022-08-07T05:23:29.839Z,61.22
2022-08-07T05:24:30.606Z,61.71
2022-08-07T05:25:54.440Z,61.35
2022-08-07T05:26:27.423Z,61.74
2022-08-07T05:28:03.202Z,61.25
2022-08-07T05:28:27.843Z,61.35
2022-08-07T05:29:27.356Z,60.97
2022-08-07T05:30:30.366Z,61.00
2022-08-07T05:31:35.270Z,60.90
2022-08-07T05:32:27.355Z,60.41
2022-08-07T05:33:27.331Z,59.86
2022-08-07T05:34:27.724Z,59.47
2022-08-07T05:35:33.526Z,59.38
2022-08-07T05:36:30.321Z,59.47
2022-08-07T05:37:27.484Z,58.79
2022-08-07T05:39:00.907Z,58.50
2022-08-07T05:40:05.731Z,59.01
2022-08-07T05:40:28.638Z,59.21
2022-08-07T05:42:00.450Z,58.53
2022-08-07T05:42:33.406Z,57.85
2022-08-07T05:43:49.832Z,58.33
2022-08-07T05:44:29.623Z,58.07
2022-08-07T05:45:46.804Z,57.78
2022-08-07T05:46:27.143Z,57.39
2022-08-07T05:47:38.170Z,57.10
2022-08-07T05:48:27.151Z,55.93
2022-08-07T05:49:27.081Z,56.05
2022-08-07T05:50:27.070Z,55.86
2022-08-07T05:51:31.553Z,55.47
2022-08-07T05:52:32.468Z,55.27
2022-08-07T05:54:14.151Z,55.27
2022-08-07T05:54:30.310Z,55.18
2022-08-07T05:56:02.439Z,54.60
2022-08-07T05:56:30.135Z,54.60
2022-08-07T05:57:30.470Z,54.40
2022-08-07T05:58:36.366Z,54.52
2022-08-07T05:59:27.478Z,54.62
2022-08-07T06:00:26.933Z,54.52
2022-08-07T06:01:26.977Z,54.13
2022-08-07T06:02:29.145Z,53.85
2022-08-07T06:03:53.725Z,53.85
2022-08-07T06:04:30.281Z,54.43
2022-08-07T06:05:28.546Z,54.16
2022-08-07T06:06:29.405Z,54.16
2022-08-07T06:08:29.036Z,53.67
2022-08-07T06:08:30.738Z,53.48
2022-08-07T06:09:45.078Z,53.48
2022-08-07T06:10:26.802Z,53.58
2022-08-07T06:11:26.807Z,53.70
2022-08-07T06:12:27.813Z,53.21
2022-08-07T06:14:12.583Z,53.41
2022-08-07T06:14:30.324Z,52.83
2022-08-07T06:15:38.562Z,53.11
2022-08-07T06:16:28.223Z,52.36
2022-08-07T06:17:30.558Z,52.26
2022-08-07T06:18:27.980Z,52.17
2022-08-07T06:19:52.353Z,52.17
2022-08-07T06:20:49.963Z,52.26
2022-08-07T06:22:14.426Z,52.07
2022-08-07T06:22:27.289Z,52.19
2022-08-07T06:24:36.992Z,52.00
2022-08-07T06:24:45.642Z,51.70
2022-08-07T06:25:26.607Z,51.61
2022-08-07T06:26:27.504Z,51.31
2022-08-07T06:27:44.249Z,51.31
2022-08-07T06:28:27.164Z,51.61
2022-08-07T06:29:26.605Z,51.43
2022-08-07T06:30:36.246Z,51.73
2022-08-07T06:31:46.789Z,51.43
2022-08-07T06:32:29.420Z,51.53
2022-08-07T06:33:26.576Z,51.63
2022-08-07T06:34:30.493Z,51.63
2022-08-07T06:35:30.700Z,51.37
2022-08-07T06:36:35.033Z,51.07
2022-08-07T06:37:26.470Z,51.17
2022-08-07T06:38:28.516Z,50.49
2022-08-07T06:40:17.985Z,50.39
2022-08-07T06:40:32.359Z,50.39
2022-08-07T06:42:00.940Z,50.29
2022-08-07T06:42:32.847Z,50.61
2022-08-07T06:43:26.724Z,50.22
2022-08-07T06:44:26.417Z,49.63
2022-08-07T06:45:26.402Z,48.94
2022-08-07T06:46:31.402Z,49.14
2022-08-07T06:47:27.004Z,48.97
2022-08-07T06:48:26.337Z,48.97
2022-08-07T06:49:26.349Z,48.97
2022-08-07T06:50:26.341Z,48.97
2022-08-07T06:51:33.359Z,48.19
2022-08-07T06:52:31.404Z,48.41
2022-08-07T06:55:28.913Z,48.60
2022-08-07T06:55:33.997Z,48.11
2022-08-07T06:55:33.997Z,48.02
2022-08-07T06:56:26.279Z,47.72
2022-08-07T06:57:39.331Z,48.21
2022-08-07T06:58:27.596Z,48.50
2022-08-07T07:00:12.662Z,48.41
2022-08-07T07:00:26.206Z,48.24
2022-08-07T07:01:26.229Z,47.94
2022-08-07T07:02:48.488Z,48.04
2022-08-07T07:03:39.915Z,47.45
2022-08-07T07:04:28.152Z,47.06
2022-08-07T07:06:02.600Z,47.16
2022-08-07T07:06:26.738Z,47.55
2022-08-07T07:08:00.331Z,47.75
2022-08-07T07:08:26.665Z,47.65
2022-08-07T07:09:26.092Z,47.38
2022-08-07T07:10:26.565Z,47.28
2022-08-07T07:12:08.960Z,47.28
2022-08-07T07:12:31.073Z,47.18
2022-08-07T07:13:55.765Z,47.20
2022-08-07T07:14:26.095Z,47.28
2022-08-07T07:15:26.495Z,47.01
2022-08-07T07:16:27.524Z,46.62
2022-08-07T07:17:28.903Z,47.11
2022-08-07T07:18:47.315Z,46.81
2022-08-07T07:19:56.579Z,46.72
2022-08-07T07:20:26.862Z,46.62
2022-08-07T07:21:27.079Z,46.91
2022-08-07T07:22:36.161Z,46.74
2022-08-07T07:24:08.577Z,46.74
2022-08-07T07:24:25.951Z,46.15
2022-08-07T07:26:32.403Z,45.86
2022-08-07T07:26:35.672Z,45.76
2022-08-07T07:27:25.898Z,45.76
2022-08-07T07:28:42.436Z,45.66
2022-08-07T07:29:57.196Z,45.27
2022-08-07T07:30:32.491Z,45.47
2022-08-07T07:31:25.859Z,45.78
2022-08-07T07:32:25.844Z,45.09
2022-08-07T07:33:25.834Z,44.90
2022-08-07T07:34:30.673Z,45.00
2022-08-07T07:35:25.834Z,45.00
2022-08-07T07:36:32.324Z,45.09
2022-08-07T07:37:49.776Z,45.00
2022-08-07T07:38:25.783Z,45.00
2022-08-07T07:39:25.903Z,45.19
2022-08-07T07:40:26.332Z,45.09
2022-08-07T07:41:31.022Z,45.29
2022-08-07T07:42:33.019Z,45.88
2022-08-07T07:43:27.461Z,45.78
2022-08-07T07:44:26.637Z,45.39
2022-08-07T07:46:35.642Z,44.90
2022-08-07T07:46:38.199Z,45.12
2022-08-07T07:47:25.735Z,45.00
2022-08-07T07:48:36.083Z,44.92
2022-08-07T07:50:34.581Z,44.31
2022-08-07T07:50:35.392Z,45.02
2022-08-07T07:51:25.652Z,44.53
2022-08-07T07:52:25.651Z,44.21
2022-08-07T07:53:25.940Z,44.60
2022-08-07T07:54:25.657Z,44.51
2022-08-07T07:55:25.646Z,44.51
2022-08-07T07:56:30.370Z,44.41
2022-08-07T07:57:43.940Z,44.82
2022-08-07T07:58:25.585Z,45.02
2022-08-07T07:59:52.685Z,44.82
2022-08-07T08:00:31.384Z,45.02
2022-08-07T08:02:03.023Z,45.02
2022-08-07T08:02:35.494Z,44.92
2022-08-07T08:04:09.665Z,44.53
2022-08-07T08:04:27.396Z,44.13
2022-08-07T08:05:27.813Z,43.92
2022-08-07T08:06:25.526Z,44.21
2022-08-07T08:07:35.598Z,44.41
2022-08-07T08:08:35.417Z,44.90
2022-08-07T08:09:29.503Z,45.00
2022-08-07T08:10:37.595Z,44.80
2022-08-07T08:11:59.517Z,45.19
2022-08-07T08:12:52.019Z,44.90
2022-08-07T08:13:25.463Z,44.82
2022-08-07T08:14:26.543Z,44.82
2022-08-07T08:15:25.404Z,45.02
2022-08-07T08:16:25.458Z,44.82
2022-08-07T08:17:58.260Z,44.43
2022-08-07T08:18:25.400Z,44.35
2022-08-07T08:20:17.493Z,43.74
2022-08-07T08:20:31.760Z,44.26
2022-08-07T08:21:25.342Z,44.16
2022-08-07T08:22:32.582Z,44.26
2022-08-07T08:23:27.881Z,44.06
2022-08-07T08:24:36.412Z,44.16
2022-08-07T08:25:42.484Z,44.62
2022-08-07T08:26:25.306Z,44.43
2022-08-07T08:27:25.283Z,44.55
2022-08-07T08:28:37.867Z,43.94
2022-08-07T08:29:25.282Z,44.06
2022-08-07T08:30:25.269Z,43.35
2022-08-07T08:31:58.309Z,43.35
2022-08-07T08:32:25.619Z,43.72
2022-08-07T08:33:25.218Z,44.23
2022-08-07T08:34:27.148Z,44.21
2022-08-07T08:35:25.214Z,44.21
2022-08-07T08:36:25.391Z,44.02
2022-08-07T08:38:00.934Z,44.51
2022-08-07T08:38:25.842Z,44.90
2022-08-07T08:39:25.196Z,44.90
2022-08-07T08:40:28.569Z,44.78
2022-08-07T08:41:25.141Z,44.60
2022-08-07T08:42:25.670Z,44.80
2022-08-07T08:43:31.984Z,44.90
2022-08-07T08:44:29.609Z,45.00
2022-08-07T08:45:26.638Z,45.09
2022-08-07T08:46:25.398Z,45.21
2022-08-07T08:47:25.372Z,44.90
2022-08-07T08:48:28.381Z,44.43
2022-08-07T08:49:33.106Z,44.43
2022-08-07T08:50:28.329Z,44.33
2022-08-07T08:51:29.630Z,44.73
2022-08-07T08:52:25.039Z,44.55
2022-08-07T08:53:25.024Z,44.55
2022-08-07T08:54:25.058Z,44.74
2022-08-07T08:55:53.267Z,44.16
2022-08-07T08:56:24.990Z,44.06
2022-08-07T08:57:24.971Z,44.18
2022-08-07T08:58:28.719Z,43.49
2022-08-07T08:59:24.960Z,43.49
2022-08-07T09:00:24.957Z,43.49
2022-08-07T09:01:29.979Z,42.80
2022-08-07T09:02:35.186Z,43.00
2022-08-07T09:03:49.474Z,42.32
2022-08-07T09:04:25.972Z,42.51
2022-08-07T09:05:37.487Z,42.21
2022-08-07T09:06:24.919Z,42.32
2022-08-07T09:07:25.227Z,42.90
2022-08-07T09:08:28.431Z,42.61
2022-08-07T09:09:30.024Z,42.39
2022-08-07T09:10:24.853Z,42.68
2022-08-07T09:11:43.711Z,42.79
2022-08-07T09:12:30.820Z,42.68
2022-08-07T09:13:37.029Z,42.49
2022-08-07T09:14:29.550Z,42.29
2022-08-07T09:16:23.809Z,42.49
2022-08-07T09:16:29.801Z,42.29
2022-08-07T09:17:24.793Z,42.00
2022-08-07T09:18:24.930Z,42.29
2022-08-07T09:19:44.695Z,41.80
2022-08-07T09:20:35.306Z,42.00
2022-08-07T09:21:34.012Z,42.29
2022-08-07T09:24:28.520Z,42.00
2022-08-07T09:24:33.796Z,42.19
2022-08-07T09:24:52.477Z,42.29
2022-08-07T09:25:24.735Z,42.11
2022-08-07T09:26:25.456Z,42.02
2022-08-07T09:27:24.743Z,41.92
2022-08-07T09:30:01.643Z,41.24
2022-08-07T09:30:04.216Z,41.63
2022-08-07T09:30:28.177Z,41.43
2022-08-07T09:31:24.652Z,42.02
2022-08-07T09:32:26.541Z,41.82
2022-08-07T09:33:53.176Z,41.82
2022-08-07T09:34:26.146Z,41.92
2022-08-07T09:36:04.243Z,42.04
2022-08-07T09:36:27.121Z,42.04
2022-08-07T09:37:33.299Z,41.94
2022-08-07T09:38:24.566Z,41.64
2022-08-07T09:39:54.076Z,41.55
2022-08-07T09:40:24.576Z,41.56
2022-08-07T09:41:24.545Z,41.47
2022-08-07T09:42:25.069Z,41.47
2022-08-07T09:43:40.073Z,41.67
2022-08-07T09:44:33.049Z,41.27
2022-08-07T09:47:24.221Z,40.88
2022-08-07T09:47:52.062Z,40.98
2022-08-07T09:47:56.015Z,40.78
2022-08-07T09:48:29.703Z,40.69
2022-08-07T09:50:00.613Z,40.48
2022-08-07T09:50:26.543Z,40.78
2022-08-07T09:52:09.700Z,40.58
2022-08-07T09:52:34.369Z,40.58
2022-08-07T09:53:24.417Z,40.78
2022-08-07T09:54:27.067Z,40.69
2022-08-07T09:55:29.240Z,40.69
2022-08-07T09:56:34.064Z,40.78
2022-08-07T09:57:24.426Z,40.69
2022-08-07T09:58:32.226Z,40.69
2022-08-07T09:59:29.427Z,40.69
2022-08-07T10:00:29.923Z,40.66
2022-08-07T10:01:52.027Z,40.69
2022-08-07T10:02:24.373Z,40.56
2022-08-07T10:04:06.089Z,40.47
2022-08-07T10:04:28.074Z,40.56
2022-08-07T10:05:59.406Z,40.66
2022-08-07T10:06:24.720Z,40.56
2022-08-07T10:07:26.302Z,39.98
2022-08-07T10:08:24.305Z,40.17
2022-08-07T10:09:42.968Z,39.88
2022-08-07T10:10:24.271Z,39.48
2022-08-07T10:12:02.327Z,39.48
2022-08-07T10:12:26.419Z,39.58
2022-08-07T10:13:54.738Z,40.06
2022-08-07T10:14:30.282Z,39.95
2022-08-07T10:15:24.211Z,40.64
2022-08-07T10:16:24.321Z,40.74
2022-08-07T10:17:24.235Z,40.45
2022-08-07T10:18:26.628Z,40.74
2022-08-07T10:19:24.170Z,40.74
2022-08-07T10:20:30.467Z,40.94
2022-08-07T10:22:12.592Z,41.14
2022-08-07T10:22:24.873Z,40.96
2022-08-07T10:24:05.723Z,40.86
2022-08-07T10:24:24.116Z,40.66
2022-08-07T10:25:24.136Z,40.56
2022-08-07T10:26:24.875Z,40.56
2022-08-07T10:27:24.121Z,39.98
2022-08-07T10:28:24.963Z,39.88
2022-08-07T10:29:24.067Z,40.56
2022-08-07T10:30:24.971Z,40.56
2022-08-07T10:31:24.067Z,40.47
2022-08-07T10:32:51.125Z,40.96
2022-08-07T10:34:05.851Z,41.16
2022-08-07T10:34:27.318Z,40.98
2022-08-07T10:35:25.513Z,40.88
2022-08-07T10:36:29.363Z,40.88
2022-08-07T10:37:48.255Z,40.78
2022-08-07T10:38:35.889Z,40.58
2022-08-07T10:39:25.725Z,40.61
2022-08-07T10:40:30.053Z,40.51
2022-08-07T10:41:46.605Z,40.11
2022-08-07T10:42:31.287Z,40.03
2022-08-07T10:43:29.817Z,39.54
2022-08-07T10:44:37.383Z,39.54
2022-08-07T10:45:44.102Z,39.72
2022-08-07T10:46:23.905Z,39.52
2022-08-07T10:47:27.061Z,39.52
2022-08-07T10:48:23.926Z,39.50
2022-08-07T10:49:24.732Z,39.62
2022-08-07T10:50:25.808Z,39.50
2022-08-07T10:51:39.102Z,39.40
2022-08-07T10:52:31.924Z,39.40
2022-08-07T10:53:23.852Z,39.80
2022-08-07T10:54:23.833Z,40.09
2022-08-07T10:55:38.753Z,40.08
2022-08-07T10:56:31.506Z,40.00
2022-08-07T10:57:34.295Z,40.09
2022-08-07T10:58:25.022Z,40.19
2022-08-07T10:59:23.786Z,39.90
2022-08-07T11:00:39.259Z,39.70
2022-08-07T11:01:23.975Z,39.78
2022-08-07T11:02:33.130Z,39.98
2022-08-07T11:03:23.769Z,40.08
2022-08-07T11:04:32.043Z,39.98
2022-08-07T11:05:24.153Z,40.08
2022-08-07T11:06:23.779Z,40.66
2022-08-07T11:07:56.347Z,40.47
2022-08-07T11:08:23.697Z,40.66
2022-08-07T11:10:07.425Z,39.95
2022-08-07T11:10:24.256Z,40.16
2022-08-07T11:11:23.721Z,40.45
2022-08-07T11:12:31.977Z,40.64
2022-08-07T11:14:42.321Z,40.55
2022-08-07T11:14:46.407Z,40.74
2022-08-07T11:15:26.284Z,40.55
2022-08-07T11:16:29.699Z,40.63
2022-08-07T11:17:43.489Z,41.02
2022-08-07T11:18:24.499Z,40.92
2022-08-07T11:19:27.049Z,40.92
2022-08-07T11:20:24.536Z,40.82
2022-08-07T11:21:23.577Z,41.21
2022-08-07T11:22:33.248Z,41.31
2022-08-07T11:23:30.336Z,41.21
2022-08-07T11:24:23.552Z,41.21
2022-08-07T11:25:23.521Z,40.92
2022-08-07T11:26:23.514Z,40.82
2022-08-07T11:28:00.887Z,40.82
2022-08-07T11:28:24.673Z,40.82
2022-08-07T11:29:42.213Z,40.63
2022-08-07T11:30:29.078Z,40.33
2022-08-07T11:31:23.469Z,40.72
2022-08-07T11:32:25.344Z,40.53
2022-08-07T11:33:59.730Z,40.64
2022-08-07T11:34:23.508Z,40.74
2022-08-07T11:35:25.053Z,40.64
2022-08-07T11:36:25.358Z,40.64
2022-08-07T11:37:24.316Z,40.55
2022-08-07T11:38:28.190Z,39.95
2022-08-07T11:39:23.461Z,40.06
2022-08-07T11:40:23.432Z,39.98
2022-08-07T11:41:28.328Z,40.08
2022-08-07T11:42:23.357Z,40.06
2022-08-07T11:43:41.304Z,40.27
2022-08-07T11:44:23.329Z,40.27
2022-08-07T11:45:35.309Z,40.17
2022-08-07T11:46:23.396Z,39.88
2022-08-07T11:47:23.297Z,40.66
2022-08-07T11:48:29.740Z,40.56
2022-08-07T11:49:50.195Z,40.08
2022-08-07T11:50:32.014Z,39.68
2022-08-07T11:51:44.605Z,39.78
2022-08-07T11:52:28.999Z,39.58
2022-08-07T11:53:23.263Z,39.70
2022-08-07T11:54:25.400Z,39.39
2022-08-07T11:56:09.253Z,39.40
2022-08-07T11:56:26.671Z,39.31
2022-08-07T11:57:57.877Z,39.31
2022-08-07T11:58:33.229Z,38.52
2022-08-07T12:00:10.576Z,39.60
2022-08-07T12:00:28.266Z,39.40
2022-08-07T12:01:23.162Z,39.21
2022-08-07T12:02:30.494Z,38.62
2022-08-07T12:03:42.118Z,38.54
2022-08-07T12:04:23.152Z,38.54
2022-08-07T12:05:41.608Z,38.15
2022-08-07T12:06:39.165Z,38.74
2022-08-07T12:07:27.087Z,38.05
2022-08-07T12:08:25.984Z,38.15
2022-08-07T12:09:23.772Z,38.24
2022-08-07T12:10:23.220Z,38.24
2022-08-07T12:11:23.103Z,38.34
2022-08-07T12:12:23.051Z,37.95
2022-08-07T12:13:35.317Z,37.76
2022-08-07T12:14:23.041Z,37.85
2022-08-07T12:15:58.034Z,37.46
2022-08-07T12:16:29.949Z,37.16
2022-08-07T12:17:23.043Z,36.57
2022-08-07T12:18:29.837Z,36.87
2022-08-07T12:19:23.566Z,36.97
2022-08-07T12:20:30.113Z,36.87
2022-08-07T12:21:55.120Z,36.77
2022-08-07T12:22:39.103Z,36.87
2022-08-07T12:24:06.376Z,36.77
2022-08-07T12:24:37.533Z,36.77
2022-08-07T12:26:21.384Z,37.07
2022-08-07T12:26:29.742Z,37.07
2022-08-07T12:27:28.125Z,37.07
2022-08-07T12:28:31.007Z,37.05
2022-08-07T12:29:37.527Z,36.77
2022-08-07T12:30:23.488Z,36.75
2022-08-07T12:31:23.616Z,37.07
2022-08-07T12:32:22.856Z,36.87
2022-08-07T12:33:23.287Z,37.05
2022-08-07T12:34:22.846Z,37.07
2022-08-07T12:35:24.144Z,37.07
2022-08-07T12:36:32.673Z,37.46
2022-08-07T12:37:27.876Z,37.26
2022-08-07T12:38:29.627Z,37.26
2022-08-07T12:39:43.888Z,37.55
2022-08-07T12:40:50.557Z,36.77
2022-08-07T12:41:22.826Z,36.77
2022-08-07T12:42:27.318Z,36.97
2022-08-07T12:44:04.879Z,37.07
2022-08-07T12:44:22.762Z,36.97
2022-08-07T12:45:22.739Z,36.97
2022-08-07T12:46:26.326Z,37.46
2022-08-07T12:47:27.084Z,37.46
2022-08-07T12:48:27.915Z,37.44
2022-08-07T12:49:25.499Z,37.76
2022-08-07T12:50:33.786Z,37.85
2022-08-07T12:51:22.679Z,37.36
2022-08-07T12:52:22.667Z,37.34